createdAt,value
2019-04-21T00:02:30.759Z,99.90
2019-04-21T00:08:22.355Z,99.90
2019-04-21T01:31:03.997Z,99.90
2019-04-21T01:42:28.263Z,99.90
2019-04-21T02:10:09.160Z,99.90
2019-04-21T02:46:49.446Z,99.90
2019-04-21T03:08:14.372Z,99.90
2019-04-21T03:58:42.050Z,99.90
2019-04-21T04:10:28.517Z,99.90
2019-04-21T04:45:56.406Z,99.90
2019-04-21T04:52:09.652Z,99.90
2019-04-21T05:11:16.118Z,99.90
2019-04-21T05:32:48.834Z,99.90
2019-04-21T05:48:19.214Z,99.90
2019-04-21T05:50:40.113Z,99.90
2019-04-21T05:53:08.486Z,99.90
2019-04-21T05:58:13.153Z,99.90
2019-04-21T06:01:06.337Z,99.00
2019-04-21T06:03:24.009Z,99.20
2019-04-21T06:06:00.558Z,99.20
2019-04-21T06:08:27.090Z,97.90
2019-04-21T06:10:52.964Z,97.20
2019-04-21T06:13:26.602Z,95.40
2019-04-21T06:15:56.187Z,95.70
2019-04-21T06:18:35.333Z,94.30
2019-04-21T06:20:59.805Z,93.20
2019-04-21T06:23:25.099Z,92.60
2019-04-21T06:26:05.740Z,91.30
2019-04-21T06:28:30.619Z,90.10
2019-04-21T06:31:08.076Z,90.00
2019-04-21T06:33:29.357Z,88.10
2019-04-21T06:38:59.642Z,88.80
2019-04-21T06:41:27.689Z,89.60
2019-04-21T06:44:08.251Z,87.90
2019-04-21T06:46:25.848Z,85.30
2019-04-21T06:48:55.513Z,82.90
2019-04-21T06:51:22.729Z,79.40
2019-04-21T06:53:59.273Z,78.80
2019-04-21T06:56:21.791Z,77.10
2019-04-21T06:58:51.825Z,77.80
2019-04-21T07:01:24.094Z,78.50
2019-04-21T07:03:58.947Z,76.30
2019-04-21T07:06:23.810Z,73.80
2019-04-21T07:09:02.898Z,70.80
2019-04-21T07:11:21.638Z,70.00
2019-04-21T07:14:16.187Z,70.60
2019-04-21T07:16:25.772Z,67.70
2019-04-21T07:21:31.095Z,68.50
2019-04-21T07:24:02.090Z,68.90
2019-04-21T07:26:25.458Z,68.20
2019-04-21T07:29:02.935Z,66.50
2019-04-21T07:31:33.142Z,64.00
2019-04-21T07:33:57.585Z,65.70
2019-04-21T07:36:42.351Z,65.00
2019-04-21T07:38:57.330Z,63.30
2019-04-21T07:41:20.031Z,61.10
2019-04-21T07:43:57.270Z,60.00
2019-04-21T07:46:26.314Z,62.00
2019-04-21T07:49:06.616Z,60.40
2019-04-21T07:51:47.949Z,59.90
2019-04-21T07:54:17.185Z,57.00
2019-04-21T07:56:28.792Z,57.20
2019-04-21T07:59:15.484Z,59.20
2019-04-21T08:01:45.337Z,58.30
2019-04-21T08:04:33.530Z,56.50
2019-04-21T08:06:47.756Z,55.30
2019-04-21T08:09:12.547Z,54.70
2019-04-21T08:11:41.725Z,54.90
2019-04-21T08:14:22.641Z,53.60
2019-04-21T08:16:44.925Z,53.90
2019-04-21T08:19:18.784Z,55.10
2019-04-21T08:21:55.889Z,54.50
2019-04-21T08:24:17.245Z,52.40
2019-04-21T08:26:51.563Z,50.60
2019-04-21T08:29:29.728Z,50.60
2019-04-21T08:31:56.187Z,48.90
2019-04-21T08:34:21.518Z,49.50
2019-04-21T08:36:51.106Z,48.50
2019-04-21T08:39:24.123Z,48.60
2019-04-21T08:41:53.933Z,47.90
2019-04-21T08:44:25.633Z,47.00
2019-04-21T08:46:56.777Z,47.50
2019-04-21T08:49:22.267Z,46.30
2019-04-21T08:51:57.781Z,44.80
2019-04-21T08:54:21.987Z,45.70
2019-04-21T08:57:10.084Z,47.20
2019-04-21T08:59:53.382Z,46.60
2019-04-21T09:02:31.043Z,46.10
2019-04-21T09:04:59.257Z,44.50
2019-04-21T09:07:33.084Z,44.20
2019-04-21T09:09:57.524Z,43.10
2019-04-21T09:12:29.467Z,42.70
2019-04-21T09:14:56.662Z,42.70
2019-04-21T09:17:22.421Z,42.50
2019-04-21T09:19:57.938Z,41.80
2019-04-21T09:22:29.752Z,42.20
2019-04-21T09:24:59.658Z,42.20
2019-04-21T09:27:25.779Z,41.80
2019-04-21T09:29:49.467Z,41.80
2019-04-21T09:32:16.573Z,41.20
2019-04-21T09:34:44.160Z,39.80
2019-04-21T09:37:24.413Z,39.50
2019-04-21T09:39:48.062Z,41.10
2019-04-21T09:42:11.444Z,42.50
2019-04-21T09:44:43.637Z,40.00
2019-04-21T09:47:11.038Z,39.50
2019-04-21T09:49:41.901Z,40.50
2019-04-21T09:52:18.818Z,40.60
2019-04-21T09:54:54.816Z,37.80
2019-04-21T09:57:25.735Z,39.10
2019-04-21T09:59:47.614Z,39.70
2019-04-21T10:02:18.135Z,37.30
2019-04-21T10:04:42.471Z,35.40
2019-04-21T10:07:23.374Z,35.80
2019-04-21T10:09:41.396Z,35.30
2019-04-21T10:12:09.899Z,34.40
2019-04-21T10:14:38.827Z,35.30
2019-04-21T10:17:21.694Z,34.40
2019-04-21T10:19:50.702Z,34.20
2019-04-21T10:22:19.285Z,34.10
2019-04-21T10:24:48.834Z,35.10
2019-04-21T10:27:17.470Z,33.60
2019-04-21T10:29:47.256Z,34.10
2019-04-21T10:32:18.664Z,35.10
2019-04-21T10:34:47.486Z,37.40
2019-04-21T10:37:16.686Z,37.30
2019-04-21T10:39:45.408Z,36.60
2019-04-21T10:42:15.389Z,37.80
2019-04-21T10:44:45.119Z,37.70
2019-04-21T10:47:14.513Z,38.30
2019-04-21T10:49:44.736Z,37.50
2019-04-21T10:52:15.289Z,37.40
2019-04-21T10:55:07.298Z,38.10
2019-04-21T10:57:16.715Z,41.10
2019-04-21T10:59:47.876Z,37.20
2019-04-21T11:02:21.157Z,39.40
2019-04-21T11:04:51.048Z,39.90
2019-04-21T11:07:24.306Z,39.00
2019-04-21T11:09:51.889Z,37.90
2019-04-21T11:12:21.690Z,39.00
2019-04-21T11:14:51.410Z,40.10
2019-04-21T11:17:20.014Z,37.60
2019-04-21T11:19:48.643Z,37.40
2019-04-21T11:22:17.239Z,37.90
2019-04-21T11:24:46.927Z,40.30
2019-04-21T11:27:16.756Z,40.50
2019-04-21T11:29:45.416Z,39.40
2019-04-21T11:32:14.754Z,39.90
2019-04-21T11:34:43.314Z,40.60
2019-04-21T11:37:14.266Z,39.10
2019-04-21T11:39:52.132Z,39.40
2019-04-21T11:42:15.603Z,39.20
2019-04-21T11:44:45.036Z,39.90
2019-04-21T11:47:18.583Z,40.00
2019-04-21T11:49:47.224Z,41.50
2019-04-21T11:52:16.553Z,40.40
2019-04-21T11:54:45.068Z,38.80
2019-04-21T11:57:20.515Z,40.00
2019-04-21T11:59:43.874Z,39.90
2019-04-21T12:02:12.602Z,40.30
2019-04-21T12:04:41.335Z,40.20
2019-04-21T12:07:11.286Z,40.70
2019-04-21T12:09:41.586Z,40.10
2019-04-21T12:12:11.510Z,41.50
2019-04-21T12:14:40.132Z,41.00
2019-04-21T12:17:10.008Z,40.60
2019-04-21T12:19:38.787Z,41.00
2019-04-21T12:22:16.275Z,40.20
2019-04-21T12:24:40.718Z,40.20
2019-04-21T12:27:40.076Z,41.20
2019-04-21T12:30:11.423Z,41.10
2019-04-21T12:32:48.558Z,42.00
2019-04-21T12:35:17.869Z,40.40
2019-04-21T12:37:46.921Z,40.50
2019-04-21T12:40:16.842Z,41.20
2019-04-21T12:42:45.596Z,40.30
2019-04-21T12:45:15.324Z,40.20
2019-04-21T12:47:49.899Z,39.90
2019-04-21T12:50:17.400Z,40.30
2019-04-21T12:52:47.345Z,40.40
2019-04-21T12:55:16.118Z,39.40
2019-04-21T12:57:46.005Z,40.20
2019-04-21T13:00:16.752Z,39.90
2019-04-21T13:02:45.584Z,39.70
2019-04-21T13:05:15.701Z,40.80
2019-04-21T13:07:45.604Z,39.90
2019-04-21T13:10:18.045Z,39.90
2019-04-21T13:12:47.907Z,40.20
2019-04-21T13:15:17.863Z,40.10
2019-04-21T13:17:47.377Z,39.80
2019-04-21T13:20:17.063Z,40.10
2019-04-21T13:22:46.102Z,40.20
2019-04-21T13:25:16.045Z,41.00
2019-04-21T13:27:45.155Z,41.30
2019-04-21T13:30:14.725Z,39.30
2019-04-21T13:32:43.372Z,39.70
2019-04-21T13:35:13.035Z,40.60
2019-04-21T13:37:41.680Z,41.10
2019-04-21T13:40:48.682Z,40.80
2019-04-21T13:43:04.103Z,41.10
2019-04-21T13:45:32.255Z,41.70
2019-04-21T13:48:01.061Z,42.20
2019-04-21T13:50:31.084Z,41.40
2019-04-21T13:53:00.697Z,41.00
2019-04-21T13:55:29.703Z,40.20
2019-04-21T13:57:58.824Z,41.00
2019-04-21T14:00:27.783Z,41.10
2019-04-21T14:02:56.508Z,41.20
2019-04-21T14:05:26.429Z,41.10
2019-04-21T14:07:56.257Z,41.90
2019-04-21T14:10:25.902Z,41.50
2019-04-21T14:12:54.444Z,41.80
2019-04-21T14:15:24.191Z,42.10
2019-04-21T14:17:53.195Z,41.10
2019-04-21T14:20:21.905Z,41.30
2019-04-21T14:22:51.836Z,41.60
2019-04-21T14:25:21.620Z,41.30
2019-04-21T14:27:51.976Z,41.10
2019-04-21T14:30:20.756Z,42.00
2019-04-21T14:32:49.885Z,41.70
2019-04-21T14:35:18.904Z,41.90
2019-04-21T14:37:48.788Z,42.90
2019-04-21T14:40:22.503Z,43.50
2019-04-21T14:42:47.909Z,42.70
2019-04-21T14:45:20.914Z,44.00
2019-04-21T14:48:07.265Z,44.10
2019-04-21T14:50:55.465Z,44.10
2019-04-21T14:53:25.801Z,44.30
2019-04-21T14:55:55.314Z,44.00
2019-04-21T14:58:25.354Z,44.40
2019-04-21T15:00:57.905Z,44.10
2019-04-21T15:03:27.795Z,43.80
2019-04-21T15:05:57.653Z,44.00
2019-04-21T15:08:27.040Z,43.30
2019-04-21T15:10:56.877Z,44.20
2019-04-21T15:13:25.927Z,44.10
2019-04-21T15:15:54.534Z,44.60
2019-04-21T15:18:23.031Z,45.20
2019-04-21T15:20:53.051Z,45.50
2019-04-21T15:23:23.527Z,45.20
2019-04-21T15:25:52.330Z,46.00
2019-04-21T15:28:21.958Z,45.90
2019-04-21T15:30:50.537Z,46.20
2019-04-21T15:33:20.228Z,46.00
2019-04-21T15:35:49.157Z,45.90
2019-04-21T15:38:17.876Z,45.90
2019-04-21T15:40:53.293Z,46.10
2019-04-21T15:43:16.691Z,46.50
2019-04-21T15:45:46.699Z,46.80
2019-04-21T15:48:16.113Z,47.00
2019-04-21T15:50:45.906Z,47.30
2019-04-21T15:53:16.195Z,47.30
2019-04-21T15:55:59.124Z,47.50
2019-04-21T15:58:46.359Z,47.10
2019-04-21T16:01:20.350Z,47.70
2019-04-21T16:03:49.269Z,47.20
2019-04-21T16:06:19.347Z,46.80
2019-04-21T16:08:52.507Z,47.40
2019-04-21T16:11:18.068Z,47.00
2019-04-21T16:13:47.829Z,46.80
2019-04-21T16:16:16.749Z,47.30
2019-04-21T16:18:45.992Z,47.40
2019-04-21T16:21:15.954Z,48.10
2019-04-21T16:23:44.590Z,47.80
2019-04-21T16:26:14.858Z,48.00
2019-04-21T16:28:44.864Z,48.20
2019-04-21T16:31:14.241Z,48.50
2019-04-21T16:33:43.247Z,48.80
2019-04-21T16:36:13.207Z,48.70
2019-04-21T16:38:41.947Z,48.70
2019-04-21T16:41:12.004Z,49.20
2019-04-21T16:43:41.007Z,48.90
2019-04-21T16:46:10.781Z,49.10
2019-04-21T16:48:39.846Z,48.80
2019-04-21T16:51:09.816Z,49.10
2019-04-21T16:53:40.033Z,49.50
2019-04-21T16:56:10.981Z,48.70
2019-04-21T16:58:50.520Z,48.60
2019-04-21T17:01:27.649Z,48.80
2019-04-21T17:03:56.348Z,49.20
2019-04-21T17:06:24.996Z,48.90
2019-04-21T17:08:54.676Z,49.00
2019-04-21T17:11:30.401Z,49.00
2019-04-21T17:13:56.433Z,49.00
2019-04-21T17:16:52.926Z,49.20
2019-04-21T17:19:05.326Z,49.50
2019-04-21T17:21:25.934Z,49.70
2019-04-21T17:23:54.689Z,50.10
2019-04-21T17:26:23.550Z,49.30
2019-04-21T17:28:52.642Z,49.80
2019-04-21T17:31:22.279Z,50.40
2019-04-21T17:33:57.854Z,50.90
2019-04-21T17:36:21.153Z,50.70
2019-04-21T17:38:50.115Z,50.90
2019-04-21T17:41:27.829Z,51.30
2019-04-21T17:43:49.914Z,51.70
2019-04-21T17:46:22.623Z,51.60
2019-04-21T17:48:49.290Z,52.10
2019-04-21T17:51:19.543Z,52.60
2019-04-21T17:53:55.692Z,52.40
2019-04-21T17:56:47.522Z,52.20
2019-04-21T17:59:16.360Z,53.60
2019-04-21T18:01:42.415Z,53.20
2019-04-21T18:04:16.857Z,53.60
2019-04-21T18:06:53.595Z,53.40
2019-04-21T18:09:37.021Z,53.80
2019-04-21T18:12:01.931Z,53.70
2019-04-21T18:14:11.507Z,53.70
2019-04-21T18:16:44.794Z,54.60
2019-04-21T18:19:11.034Z,54.90
2019-04-21T18:21:54.111Z,54.20
2019-04-21T18:24:22.704Z,54.60
2019-04-21T18:26:57.316Z,54.70
2019-04-21T18:29:23.687Z,55.30
2019-04-21T18:31:54.158Z,55.80
2019-04-21T18:34:44.285Z,55.80
2019-04-21T18:37:18.564Z,56.10
2019-04-21T18:39:53.251Z,56.50
2019-04-21T18:42:32.789Z,56.70
2019-04-21T18:48:03.820Z,57.10
2019-04-21T18:50:48.928Z,57.10
2019-04-21T18:53:23.784Z,57.40
2019-04-21T18:55:46.576Z,57.80
2019-04-21T18:58:13.719Z,58.00
2019-04-21T19:00:45.325Z,58.20
2019-04-21T19:03:14.041Z,58.40
2019-04-21T19:05:47.839Z,58.80
2019-04-21T19:08:26.352Z,58.90
2019-04-21T19:11:02.490Z,59.20
2019-04-21T19:16:22.609Z,59.90
2019-04-21T19:18:42.918Z,60.30
2019-04-21T19:21:00.202Z,60.00
2019-04-21T19:23:39.142Z,60.00
2019-04-21T19:26:10.483Z,60.20
2019-04-21T19:28:40.023Z,61.10
2019-04-21T19:33:29.633Z,61.20
2019-04-21T19:35:45.569Z,61.70
2019-04-21T19:38:16.205Z,62.20
2019-04-21T19:40:59.250Z,62.20
2019-04-21T19:43:38.472Z,62.80
2019-04-21T19:46:03.056Z,63.10
2019-04-21T19:48:42.772Z,63.60
2019-04-21T19:51:04.249Z,63.60
2019-04-21T19:53:29.852Z,64.10
2019-04-21T19:55:45.779Z,63.80
2019-04-21T19:58:14.913Z,63.80
2019-04-21T20:00:44.510Z,63.80
2019-04-21T20:03:14.486Z,64.00
2019-04-21T20:05:49.499Z,64.00
2019-04-21T20:08:27.807Z,64.30
2019-04-21T20:10:59.391Z,64.90
2019-04-21T20:13:48.897Z,64.80
2019-04-21T20:16:01.392Z,65.30
2019-04-21T20:18:24.560Z,65.40
2019-04-21T20:20:45.882Z,65.50
2019-04-21T20:23:19.313Z,66.20
2019-04-21T20:25:52.561Z,66.40
2019-04-21T20:28:27.197Z,66.70
2019-04-21T20:31:09.586Z,67.00
2019-04-21T20:33:48.856Z,67.30
2019-04-21T20:36:01.954Z,67.60
2019-04-21T20:38:29.905Z,67.90
2019-04-21T20:40:53.612Z,67.80
2019-04-21T20:43:38.150Z,68.50
2019-04-21T20:46:02.439Z,68.90
2019-04-21T20:48:29.634Z,69.10
2019-04-21T20:51:06.550Z,69.40
2019-04-21T20:53:33.141Z,69.50
2019-04-21T20:56:00.962Z,69.50
2019-04-21T20:58:34.362Z,70.10
2019-04-21T21:01:20.932Z,70.20
2019-04-21T21:03:34.872Z,70.40
2019-04-21T21:05:59.759Z,70.90
2019-04-21T21:08:35.933Z,71.10
2019-04-21T21:11:02.401Z,71.30
2019-04-21T21:13:36.653Z,71.60
2019-04-21T21:16:16.385Z,72.10
2019-04-21T21:21:04.598Z,72.80
2019-04-21T21:23:37.786Z,72.90
2019-04-21T21:26:14.472Z,73.60
2019-04-21T21:28:32.767Z,73.60
2019-04-21T21:31:11.954Z,74.40
2019-04-21T21:33:35.470Z,74.90
2019-04-21T21:36:10.627Z,74.50
2019-04-21T21:38:39.414Z,74.70
2019-04-21T21:41:02.499Z,75.50
2019-04-21T21:43:23.672Z,76.00
2019-04-21T21:45:55.316Z,75.90
2019-04-21T21:48:39.553Z,76.30
2019-04-21T21:51:03.314Z,76.60
2019-04-21T21:53:25.468Z,77.20
2019-04-21T21:55:52.992Z,77.40
2019-04-21T21:58:28.532Z,78.10
2019-04-21T22:00:58.918Z,78.20
2019-04-21T22:03:32.943Z,78.90
2019-04-21T22:06:01.901Z,79.40
2019-04-21T22:08:25.661Z,80.00
2019-04-21T22:10:54.983Z,80.70
2019-04-21T22:13:35.488Z,81.30
2019-04-21T22:15:56.526Z,81.60
2019-04-21T22:18:39.222Z,81.80
2019-04-21T22:21:09.137Z,82.60
2019-04-21T22:23:38.170Z,82.90
2019-04-21T22:25:55.487Z,83.40
2019-04-21T22:28:25.310Z,84.30
2019-04-21T22:30:55.150Z,84.80
2019-04-21T22:33:25.788Z,85.60
2019-04-21T22:36:03.767Z,86.70
2019-04-21T22:38:40.952Z,87.90
2019-04-21T22:41:06.081Z,88.70
2019-04-21T22:43:32.684Z,90.00
2019-04-21T22:45:55.719Z,90.40
2019-04-21T22:48:28.252Z,90.90
2019-04-21T22:50:54.614Z,91.40
2019-04-21T22:53:23.155Z,92.10
2019-04-21T22:56:00.360Z,92.60
2019-04-21T22:58:25.758Z,93.10
2019-04-21T23:00:56.105Z,93.40
2019-04-21T23:03:24.781Z,94.20
2019-04-21T23:05:53.736Z,94.70
2019-04-21T23:08:26.434Z,95.20
2019-04-21T23:10:59.136Z,95.40
2019-04-21T23:13:24.138Z,95.70
2019-04-21T23:15:57.264Z,96.20
2019-04-21T23:18:36.275Z,96.50
2019-04-21T23:21:11.553Z,97.00
2019-04-21T23:23:46.693Z,97.40
2019-04-21T23:26:14.901Z,97.50
2019-04-21T23:28:45.781Z,97.70
2019-04-21T23:31:16.207Z,97.70
2019-04-21T23:33:25.715Z,98.10
2019-04-21T23:36:03.960Z,98.30
2019-04-21T23:38:29.308Z,98.60
2019-04-21T23:40:58.622Z,98.50
2019-04-21T23:43:28.189Z,98.70
2019-04-21T23:45:55.175Z,99.10
2019-04-21T23:48:36.539Z,99.30
2019-04-21T23:51:07.767Z,99.50
2019-04-21T23:53:23.951Z,99.40
2019-04-21T23:55:53.016Z,99.90
2019-04-21T23:58:25.567Z,99.90
